Pointe-a-Pitre, Guadeloupe
Current Conditions -  °F | °C
As of 3:00 PM on Friday 24 Oct 2014 (Local Time) from TFFR Reporting Station
Scattered Clouds Scattered Clouds  
Wind Chill: 88°   Ceiling: Unl
Heat Index: 94°   Visibility: 6mi
Dew Point: 72°   Wind: 12mph
Humidity: 58%   Direction: 120°ESE
Pressure: 29.85"   Gusts: NA
Location:  16.24°N, 61.53°W
Report Text: TFFR 241900Z 12010KT 9999 SCT031 31/22 Q1011 NOSIG
Loading
Personal Weather Stations






























Interactive Weather Map
Tropical Storm Tracking
New forecast layout! Learn more

10-Day Weather Forecast

Advertisements
Track Severe Weather on mobile